Time;durP1;ratioP1;P1;durP2;ratioP2;P2;SDS_P1;SDS_P2;PMS_P1;PMS_P2;Temp;Humidity;BMP_temperature;BMP_pressure;BME280_temperature;BME280_humidity;BME280_pressure;Samples;Min_cycle;Max_cycle;Signal;HPM_P1;HPM_P2
2022/02/01 00:03:38;;;;;;;;;;;;;;;-1.48;67.11;98925.91;5010050;28;1943;-57
2022/02/01 00:11:11;;;;;;;;;;;;;;;-1.36;66.42;98920.44;5009355;28;725;-56
2022/02/01 00:13:56;;;;;;;;;;;;;;;-1.40;66.11;98922.28;5010136;28;1145;-56
2022/02/01 00:33:19;;;;;;;;;;;;;;;-1.26;66.80;98892.84;5091909;28;633;-56
2022/02/01 00:35:57;;;;;;;;;;;;;;;-1.20;66.85;98895.31;5091566;28;933;-56
2022/02/01 00:38:32;;;;;;;;;;;;;;;-1.15;66.80;98895.03;5091559;28;949;-56
2022/02/01 00:41:04;;;;;;;;;;;;;;;-1.09;66.52;98894.47;5091641;28;846;-57
2022/02/01 00:43:31;;;;;;;;;;;;;;;-1.08;66.56;98897.97;5091518;28;1898;-56
2022/02/01 00:46:00;;;;;;;;;;;;;;;-1.17;67.13;98892.69;5091451;28;932;-57
2022/02/01 00:48:27;;;;;;;;;;;;;;;-1.13;67.19;98877.31;5091291;28;886;-58
2022/02/01 00:50:53;;;;;;;;;;;;;;;-1.06;66.72;98872.06;5091509;28;814;-57
2022/02/01 00:53:27;;;;;;;;;;;;;;;-1.05;66.50;98865.50;5091392;28;1084;-57
2022/02/01 00:55:55;;;;;;;;;;;;;;;-1.17;66.69;98865.59;5091653;28;1039;-57
2022/02/01 00:58:22;;;;;;;;;;;;;;;-1.27;66.75;98874.22;5091500;28;863;-57
2022/02/01 01:00:49;;;;;;;;;;;;;;;-1.39;66.72;98882.38;5091246;28;860;-57
2022/02/01 01:03:16;;;;;;;;;;;;;;;-1.42;67.31;98874.97;5091540;28;1951;-56
2022/02/01 01:05:42;;;;;;;;;;;;;;;-1.40;67.37;98865.34;5091584;28;779;-57
2022/02/01 01:08:08;;;;;;;;;;;;;;;-1.32;67.04;98869.06;5091276;28;933;-57
2022/02/01 01:10:35;;;;;;;;;;;;;;;-1.29;67.44;98858.28;5091156;28;905;-57
2022/02/01 01:13:19;;;;;;;;;;;;;;;-1.18;67.83;98855.06;5091215;28;929;-57
2022/02/01 01:43:38;;;;;;;;;;;;;;;-0.46;66.57;98822.38;5094725;28;1877;-56
2022/02/01 01:54:22;;;;;;;;;;;;;;;-0.46;67.38;98825.88;5094845;28;669;-57
2022/02/01 01:56:53;;;;;;;;;;;;;;;-0.33;67.18;98825.75;5094550;28;826;-58
2022/02/01 01:59:20;;;;;;;;;;;;;;;-0.37;67.82;98827.59;5094480;28;818;-56
2022/02/01 02:01:47;;;;;;;;;;;;;;;-0.43;68.11;98827.09;5094566;28;1055;-57
2022/02/01 02:04:14;;;;;;;;;;;;;;;-0.53;68.43;98822.22;5094264;28;1944;-56
2022/02/01 02:06:40;;;;;;;;;;;;;;;-0.52;69.08;98823.78;5094556;28;846;-56
2022/02/01 02:09:09;;;;;;;;;;;;;;;-0.42;68.91;98828.66;5094330;28;914;-56
2022/02/01 02:11:48;;;;;;;;;;;;;;;-0.26;68.63;98829.41;5094110;28;913;-56
2022/02/01 02:14:21;;;;;;;;;;;;;;;-0.13;67.87;98835.50;5094053;28;941;-57
2022/02/01 02:16:50;;;;;;;;;;;;;;;-0.13;68.06;98818.44;5094417;28;1050;-56
2022/02/01 02:19:16;;;;;;;;;;;;;;;-0.13;68.10;98835.50;5094144;28;1492;-56
2022/02/01 02:21:46;;;;;;;;;;;;;;;-0.21;67.98;98831.88;5094369;28;835;-56
2022/02/01 02:24:13;;;;;;;;;;;;;;;-0.22;68.60;98832.22;5093624;28;2392;-56
2022/02/01 02:26:40;;;;;;;;;;;;;;;-0.10;68.36;98834.03;5093804;28;895;-56
2022/02/01 02:29:06;;;;;;;;;;;;;;;-0.08;68.11;98835.25;5093744;28;816;-56
2022/02/01 02:31:32;;;;;;;;;;;;;;;-0.17;67.98;98829.25;5093769;28;842;-56
2022/02/01 02:34:03;;;;;;;;;;;;;;;-0.14;68.06;98841.31;5093255;28;802;-57
2022/02/01 02:36:32;;;;;;;;;;;;;;;-0.11;68.12;98833.22;5093586;28;842;-57
2022/02/01 02:39:06;;;;;;;;;;;;;;;-0.09;68.71;98835.59;5093760;28;882;-56
2022/02/01 02:42:07;;;;;;;;;;;;;;;-0.13;69.18;98840.94;5093533;28;949;-56
2022/02/01 02:47:07;;;;;;;;;;;;;;;0.09;69.97;98844.94;5093808;28;621;-56
2022/02/01 02:49:34;;;;;;;;;;;;;;;0.28;69.36;98848.81;5093375;28;941;-57
2022/02/01 02:52:01;;;;;;;;;;;;;;;0.27;69.25;98849.97;5093354;28;929;-56
2022/02/01 02:54:28;;;;;;;;;;;;;;;0.27;69.36;98853.47;5093332;28;865;-57
2022/02/01 02:56:56;;;;;;;;;;;;;;;0.24;69.91;98856.13;5075186;28;2319;-56
2022/02/01 02:59:23;;;;;;;;;;;;;;;0.23;69.85;98857.25;5093256;28;834;-56
2022/02/01 03:01:50;;;;;;;;;;;;;;;0.22;70.31;98848.31;5093127;28;881;-56
2022/02/01 03:04:27;;;;;;;;;;;;;;;0.26;70.15;98843.75;5093057;28;1882;-56
2022/02/01 03:06:54;;;;;;;;;;;;;;;0.23;70.39;98844.44;5093218;28;803;-56
2022/02/01 03:09:22;;;;;;;;;;;;;;;0.17;70.90;98840.44;5092970;28;867;-56
2022/02/01 03:11:49;;;;;;;;;;;;;;;0.17;71.08;98837.72;5093014;28;928;-56
2022/02/01 03:14:25;;;;;;;;;;;;;;;0.12;71.19;98825.19;5092893;28;912;-57
2022/02/01 03:17:11;;;;;;;;;;;;;;;0.14;71.55;98825.63;5093215;28;1099;-56
2022/02/01 03:19:48;;;;;;;;;;;;;;;0.17;71.51;98821.41;5092470;28;1424;-56
2022/02/01 03:22:15;;;;;;;;;;;;;;;0.14;72.13;98827.56;5092745;28;1917;-56
2022/02/01 03:24:41;;;;;;;;;;;;;;;0.06;72.28;98825.84;5093373;28;818;-56
2022/02/01 03:27:08;;;;;;;;;;;;;;;0.00;72.33;98833.50;5092572;28;886;-57
2022/02/01 03:29:34;;;;;;;;;;;;;;;-0.04;72.85;98830.69;5092599;28;803;-56
2022/02/01 03:32:01;;;;;;;;;;;;;;;0.01;72.92;98828.84;5092560;28;936;-56
2022/02/01 03:34:27;;;;;;;;;;;;;;;-0.10;72.44;98828.59;5092518;28;913;-56
2022/02/01 03:36:54;;;;;;;;;;;;;;;-0.26;72.53;98823.19;5092503;28;881;-56
2022/02/01 03:39:21;;;;;;;;;;;;;;;-0.41;72.38;98824.81;5092529;28;842;-56
2022/02/01 03:41:47;;;;;;;;;;;;;;;-0.52;72.79;98821.06;5092273;28;901;-56
2022/02/01 03:44:14;;;;;;;;;;;;;;;-0.44;73.77;98820.88;5092221;28;1910;-56
2022/02/01 03:46:44;;;;;;;;;;;;;;;-0.39;73.49;98819.03;5091560;28;862;-56
2022/02/01 03:49:10;;;;;;;;;;;;;;;-0.32;73.68;98821.91;5092237;28;911;-56
2022/02/01 03:51:37;;;;;;;;;;;;;;;-0.29;73.58;98819.28;5092237;28;799;-56
2022/02/01 03:54:03;;;;;;;;;;;;;;;-0.30;74.30;98809.56;5092143;28;962;-56
2022/02/01 03:56:29;;;;;;;;;;;;;;;-0.21;74.63;98802.00;5092083;28;865;-56
2022/02/01 03:58:56;;;;;;;;;;;;;;;-0.16;74.23;98808.28;5092092;28;799;-56
2022/02/01 04:01:23;;;;;;;;;;;;;;;-0.11;74.30;98808.00;5092125;28;822;-56
2022/02/01 04:03:48;;;;;;;;;;;;;;;0.05;74.13;98807.97;5091906;28;1951;-56
2022/02/01 04:06:15;;;;;;;;;;;;;;;0.25;73.42;98809.53;5091990;28;871;-58
2022/02/01 04:08:41;;;;;;;;;;;;;;;0.34;73.00;98823.72;5091873;28;918;-58
2022/02/01 04:11:08;;;;;;;;;;;;;;;0.32;72.71;98822.47;5091994;28;881;-58
2022/02/01 04:13:34;;;;;;;;;;;;;;;0.33;73.02;98822.13;5091874;28;870;-58
2022/02/01 04:16:01;;;;;;;;;;;;;;;0.34;72.69;98828.34;5092121;28;1002;-57
2022/02/01 04:18:27;;;;;;;;;;;;;;;0.29;72.40;98828.66;5091835;28;811;-58
2022/02/01 04:20:54;;;;;;;;;;;;;;;0.33;72.67;98824.06;5091351;28;1220;-58
2022/02/01 04:23:20;;;;;;;;;;;;;;;0.39;72.23;98826.16;5091800;28;1910;-58
2022/02/01 04:25:47;;;;;;;;;;;;;;;0.45;72.15;98821.22;5091711;28;886;-58
2022/02/01 04:28:14;;;;;;;;;;;;;;;0.48;72.26;98819.72;5091601;28;938;-58
2022/02/01 04:30:40;;;;;;;;;;;;;;;0.48;72.25;98817.75;5091688;28;866;-58
2022/02/01 04:33:08;;;;;;;;;;;;;;;0.45;71.72;98820.41;5091709;28;898;-57
2022/02/01 04:35:35;;;;;;;;;;;;;;;0.28;72.24;98827.06;5091531;28;867;-57
2022/02/01 04:38:01;;;;;;;;;;;;;;;0.00;73.01;98828.06;5091627;28;1051;-58
2022/02/01 04:40:28;;;;;;;;;;;;;;;-0.14;73.84;98822.31;5091493;28;891;-57
2022/02/01 04:42:55;;;;;;;;;;;;;;;-0.29;74.28;98824.69;5091324;28;1877;-58
2022/02/01 04:45:24;;;;;;;;;;;;;;;-0.50;74.96;98818.78;5091642;28;826;-58
2022/02/01 04:47:52;;;;;;;;;;;;;;;-0.69;74.62;98822.22;5091434;28;857;-58
2022/02/01 04:50:20;;;;;;;;;;;;;;;-0.80;74.81;98823.88;5091440;28;918;-58
2022/02/01 04:52:51;;;;;;;;;;;;;;;-0.84;74.83;98823.78;5091371;28;831;-58
2022/02/01 04:55:18;;;;;;;;;;;;;;;-0.83;75.28;98826.16;5091388;28;831;-58
2022/02/01 05:00:29;;;;;;;;;;;;;;;-0.56;75.14;98833.75;5095584;28;676;-58
2022/02/01 05:02:58;;;;;;;;;;;;;;;-0.51;75.20;98822.63;5095486;28;1885;-58
2022/02/01 05:05:31;;;;;;;;;;;;;;;-0.33;74.70;98829.25;5095506;28;937;-58
2022/02/01 05:08:06;;;;;;;;;;;;;;;-0.40;74.52;98834.53;5096234;28;786;-57
2022/02/01 05:10:34;;;;;;;;;;;;;;;-0.30;74.89;98817.72;5077144;28;1339;-58
2022/02/01 05:15:47;;;;;;;;;;;;;;;-0.80;74.04;98823.88;5095733;28;1050;-58
2022/02/01 05:18:19;;;;;;;;;;;;;;;-1.06;75.09;98820.53;5095165;28;942;-58
2022/02/01 05:23:15;;;;;;;;;;;;;;;-1.26;75.94;98814.22;5095050;28;1879;-58
2022/02/01 05:25:43;;;;;;;;;;;;;;;-1.32;76.22;98807.47;5094704;28;915;-58
2022/02/01 05:28:10;;;;;;;;;;;;;;;-1.35;75.82;98800.03;5094886;28;934;-58
2022/02/01 05:30:36;;;;;;;;;;;;;;;-1.34;76.12;98795.41;5095004;28;912;-58
2022/02/01 05:33:03;;;;;;;;;;;;;;;-1.33;75.99;98805.09;5094541;28;922;-58
2022/02/01 05:35:31;;;;;;;;;;;;;;;-1.37;75.81;98801.50;5076693;28;1345;-58
2022/02/01 05:37:58;;;;;;;;;;;;;;;-1.38;75.90;98808.06;5094736;28;947;-58
2022/02/01 05:40:26;;;;;;;;;;;;;;;-1.36;75.54;98812.00;5094782;28;817;-58
2022/02/01 05:43:02;;;;;;;;;;;;;;;-1.31;75.68;98803.63;5094536;28;1983;-58
2022/02/01 05:45:29;;;;;;;;;;;;;;;-1.18;75.21;98804.34;5094884;28;944;-58
2022/02/01 05:47:55;;;;;;;;;;;;;;;-1.05;74.97;98800.41;5094706;28;792;-58
2022/02/01 05:50:22;;;;;;;;;;;;;;;-1.02;75.01;98796.22;5094487;28;887;-58
2022/02/01 05:52:49;;;;;;;;;;;;;;;-1.00;74.87;98798.56;5094446;28;862;-58
2022/02/01 05:55:16;;;;;;;;;;;;;;;-0.93;74.61;98806.91;5094516;28;858;-58
2022/02/01 05:57:43;;;;;;;;;;;;;;;-0.81;74.70;98804.09;5094370;28;896;-58
2022/02/01 06:00:09;;;;;;;;;;;;;;;-0.70;74.56;98809.78;5094031;28;941;-58
2022/02/01 06:02:35;;;;;;;;;;;;;;;-0.63;74.65;98810.72;5094339;28;1881;-58
2022/02/01 06:05:02;;;;;;;;;;;;;;;-0.53;74.50;98803.22;5094457;28;881;-58
2022/02/01 06:07:29;;;;;;;;;;;;;;;-0.46;74.31;98806.09;5094369;28;799;-58
2022/02/01 06:09:55;;;;;;;;;;;;;;;-0.37;74.23;98795.03;5093118;28;921;-58
2022/02/01 06:12:22;;;;;;;;;;;;;;;-0.31;73.77;98802.53;5094493;28;898;-58
2022/02/01 06:14:48;;;;;;;;;;;;;;;-0.26;73.83;98810.41;5094367;28;1013;-58
2022/02/01 06:17:15;;;;;;;;;;;;;;;-0.15;73.77;98809.84;5094744;28;818;-58
2022/02/01 06:19:41;;;;;;;;;;;;;;;-0.05;73.67;98806.59;5094115;28;1457;-58
2022/02/01 06:22:08;;;;;;;;;;;;;;;0.02;73.65;98800.53;5093901;28;894;-58
2022/02/01 06:24:35;;;;;;;;;;;;;;;0.04;73.69;98801.72;5093745;28;1965;-58
2022/02/01 06:27:01;;;;;;;;;;;;;;;0.11;73.45;98806.56;5093921;28;854;-58
2022/02/01 06:29:28;;;;;;;;;;;;;;;0.18;73.53;98799.31;5093817;28;826;-58
2022/02/01 06:31:54;;;;;;;;;;;;;;;0.29;73.28;98798.75;5093675;28;863;-58
2022/02/01 06:34:21;;;;;;;;;;;;;;;0.45;73.06;98804.09;5093830;28;827;-58
2022/02/01 06:36:48;;;;;;;;;;;;;;;0.55;72.45;98811.69;5093613;28;854;-58
2022/02/01 06:39:14;;;;;;;;;;;;;;;0.66;72.32;98811.88;5093569;28;911;-58
2022/02/01 06:41:40;;;;;;;;;;;;;;;0.77;72.41;98812.88;5093525;28;952;-58
2022/02/01 06:44:06;;;;;;;;;;;;;;;0.82;71.78;98805.19;5093424;28;1901;-58
2022/02/01 06:46:33;;;;;;;;;;;;;;;0.87;72.20;98803.31;5093523;28;867;-58
2022/02/01 06:49:00;;;;;;;;;;;;;;;0.90;71.89;98802.63;5093423;28;843;-58
2022/02/01 06:51:28;;;;;;;;;;;;;;;0.99;71.58;98803.16;5093215;28;868;-58
2022/02/01 06:53:56;;;;;;;;;;;;;;;1.06;72.38;98805.22;5093197;28;863;-58
2022/02/01 06:56:29;;;;;;;;;;;;;;;1.16;72.20;98801.88;5093269;28;906;-58
2022/02/01 06:58:57;;;;;;;;;;;;;;;1.31;72.54;98794.75;5093313;28;806;-57
2022/02/01 07:01:24;;;;;;;;;;;;;;;1.49;71.95;98793.06;5093167;28;903;-58
2022/02/01 07:03:51;;;;;;;;;;;;;;;1.68;72.02;98789.44;5093069;28;1882;-58
2022/02/01 07:06:17;;;;;;;;;;;;;;;1.90;71.68;98782.38;5093150;28;803;-58
2022/02/01 07:08:45;;;;;;;;;;;;;;;2.14;71.42;98789.28;5093014;28;909;-58
2022/02/01 07:11:12;;;;;;;;;;;;;;;2.39;70.51;98792.31;5092813;28;902;-58
2022/02/01 07:13:39;;;;;;;;;;;;;;;2.63;69.62;98788.31;5092936;28;850;-58
2022/02/01 07:16:07;;;;;;;;;;;;;;;2.84;69.63;98782.28;5092961;28;1067;-58
2022/02/01 07:18:33;;;;;;;;;;;;;;;3.06;69.11;98785.97;5093234;28;791;-58
2022/02/01 07:21:00;;;;;;;;;;;;;;;3.34;68.02;98789.34;5092360;28;1197;-58
2022/02/01 07:23:26;;;;;;;;;;;;;;;3.51;66.98;98799.59;5092736;28;1913;-58
2022/02/01 07:25:55;;;;;;;;;;;;;;;3.68;66.50;98804.41;5092606;28;985;-58
2022/02/01 07:28:24;;;;;;;;;;;;;;;3.83;65.64;98799.81;5092744;28;1073;-58
2022/02/01 07:30:51;;;;;;;;;;;;;;;3.97;65.14;98815.53;5092936;28;842;-58
2022/02/01 07:33:18;;;;;;;;;;;;;;;4.08;64.80;98813.63;5108499;28;846;-58
2022/02/01 07:35:46;;;;;;;;;;;;;;;4.11;64.39;98808.56;5092605;28;890;-58
2022/02/01 07:38:17;;;;;;;;;;;;;;;4.22;63.84;98804.69;5092128;28;875;-58
2022/02/01 07:40:44;;;;;;;;;;;;;;;4.26;63.06;98805.50;5092446;28;866;-58
2022/02/01 07:43:10;;;;;;;;;;;;;;;4.34;62.32;98806.31;5092638;28;1910;-58
2022/02/01 07:45:39;;;;;;;;;;;;;;;4.34;62.16;98806.31;5092447;28;894;-58
2022/02/01 07:48:06;;;;;;;;;;;;;;;4.37;61.57;98813.75;5092031;28;918;-58
2022/02/01 07:50:33;;;;;;;;;;;;;;;4.33;61.55;98823.13;5092241;28;957;-58
2022/02/01 07:53:00;;;;;;;;;;;;;;;4.35;61.90;98823.53;5092332;28;815;-58
2022/02/01 07:55:27;;;;;;;;;;;;;;;4.39;61.72;98821.59;5092526;28;815;-58
2022/02/01 07:57:53;;;;;;;;;;;;;;;4.47;61.35;98821.22;5092117;28;826;-58
2022/02/01 08:00:20;;;;;;;;;;;;;;;4.60;61.43;98824.41;5092049;28;886;-58
2022/02/01 08:02:46;;;;;;;;;;;;;;;4.58;61.23;98832.22;5091919;28;1893;-58
2022/02/01 08:05:12;;;;;;;;;;;;;;;4.61;61.46;98825.19;5092033;28;808;-57
2022/02/01 08:07:39;;;;;;;;;;;;;;;4.73;60.63;98827.56;5092008;28;811;-58
2022/02/01 08:10:09;;;;;;;;;;;;;;;4.79;60.32;98827.97;5092049;28;863;-58
2022/02/01 08:20:55;;;;;;;;;;;;;;;4.43;60.57;98827.84;5091669;28;1240;-58
2022/02/01 08:23:22;;;;;;;;;;;;;;;4.45;60.52;98828.25;5091433;28;1968;-58
2022/02/01 08:25:51;;;;;;;;;;;;;;;4.49;60.16;98823.59;5091685;28;799;-58
2022/02/01 08:28:19;;;;;;;;;;;;;;;4.64;60.31;98827.94;5091715;28;878;-58
2022/02/01 08:30:46;;;;;;;;;;;;;;;4.80;59.99;98830.34;5091647;28;835;-58
2022/02/01 08:33:12;;;;;;;;;;;;;;;4.88;59.86;98822.91;5091014;28;902;-58
2022/02/01 08:35:39;;;;;;;;;;;;;;;4.91;59.92;98833.88;5091447;28;807;-58
2022/02/01 08:38:05;;;;;;;;;;;;;;;4.89;59.51;98836.22;5091628;28;866;-58
2022/02/01 08:40:32;;;;;;;;;;;;;;;4.91;59.50;98838.59;5091535;28;882;-58
2022/02/01 08:42:59;;;;;;;;;;;;;;;4.92;59.44;98842.88;5091346;28;1877;-58
2022/02/01 08:45:26;;;;;;;;;;;;;;;4.94;59.56;98835.06;5091601;28;866;-58
2022/02/01 08:47:54;;;;;;;;;;;;;;;5.06;59.58;98844.88;5091297;28;862;-58
2022/02/01 08:50:25;;;;;;;;;;;;;;;5.24;59.58;98851.16;5091686;28;795;-58
2022/02/01 08:52:52;;;;;;;;;;;;;;;5.50;59.38;98849.22;5091097;28;934;-58
2022/02/01 08:55:39;;;;;;;;;;;;;;;5.65;58.67;98841.75;5091049;28;914;-58
2022/02/01 08:58:06;;;;;;;;;;;;;;;5.81;58.33;98833.16;5091158;28;894;-58
2022/02/01 09:00:34;;;;;;;;;;;;;;;5.98;58.23;98826.09;5091441;28;810;-58
2022/02/01 09:03:03;;;;;;;;;;;;;;;6.06;57.69;98831.19;5091365;28;1944;-58
2022/02/01 09:05:32;;;;;;;;;;;;;;;6.27;57.33;98833.09;5091164;28;900;-58
2022/02/01 09:08:01;;;;;;;;;;;;;;;6.48;57.17;98823.19;5091304;28;835;-57
2022/02/01 09:10:31;;;;;;;;;;;;;;;6.67;57.04;98822.69;5091445;28;826;-58
2022/02/01 09:12:59;;;;;;;;;;;;;;;6.74;55.93;98828.19;5091451;28;1151;-58
2022/02/01 09:15:28;;;;;;;;;;;;;;;6.90;55.68;98822.19;5091066;28;907;-58
2022/02/01 09:17:55;;;;;;;;;;;;;;;6.96;55.57;98822.56;5091059;28;954;-58
2022/02/01 09:20:21;;;;;;;;;;;;;;;6.99;55.56;98816.25;5090896;28;1429;-58
2022/02/01 09:22:48;;;;;;;;;;;;;;;7.01;56.05;98815.84;5090955;28;1941;-57
2022/02/01 09:25:17;;;;;;;;;;;;;;;7.05;55.83;98816.63;5091284;28;842;-57
2022/02/01 09:27:46;;;;;;;;;;;;;;;6.94;55.46;98824.94;5091004;28;850;-57
2022/02/01 09:30:17;;;;;;;;;;;;;;;6.81;55.40;98818.34;5090953;28;882;-58
2022/02/01 09:32:44;;;;;;;;;;;;;;;6.65;55.87;98825.06;5090961;28;768;-58
2022/02/01 09:35:11;;;;;;;;;;;;;;;6.43;56.17;98820.88;5090808;28;839;-58
2022/02/01 09:37:38;;;;;;;;;;;;;;;6.19;56.32;98811.53;5091168;28;802;-58
2022/02/01 09:40:05;;;;;;;;;;;;;;;5.99;56.98;98808.44;5091325;28;909;-58
2022/02/01 09:42:35;;;;;;;;;;;;;;;6.05;57.02;98804.91;5091009;28;1952;-58
2022/02/01 09:45:02;;;;;;;;;;;;;;;6.21;56.62;98796.25;5094350;28;894;-58
2022/02/01 09:47:39;;;;;;;;;;;;;;;6.36;56.93;98796.16;5094835;28;937;-58
2022/02/01 09:50:06;;;;;;;;;;;;;;;6.59;55.92;98803.91;5094491;28;917;-58
2022/02/01 09:52:34;;;;;;;;;;;;;;;6.73;56.54;98798.34;5094781;28;929;-58
2022/02/01 09:55:02;;;;;;;;;;;;;;;6.83;56.39;98788.47;5094488;28;933;-58
2022/02/01 09:57:30;;;;;;;;;;;;;;;6.78;55.42;98788.91;5094318;28;898;-58
2022/02/01 09:59:57;;;;;;;;;;;;;;;6.71;56.28;98782.28;5094351;28;907;-58
2022/02/01 10:02:47;;;;;;;;;;;;;;;6.58;55.95;98777.66;5093943;28;823;-58
2022/02/01 10:05:15;;;;;;;;;;;;;;;6.42;56.70;98772.63;5094237;28;846;-58
2022/02/01 10:07:55;;;;;;;;;;;;;;;6.35;56.87;98778.94;5093939;28;844;-58
2022/02/01 10:10:23;;;;;;;;;;;;;;;6.26;56.97;98773.88;5094467;28;795;-57
2022/02/01 10:13:18;;;;;;;;;;;;;;;6.12;57.09;98762.94;5094070;28;934;-57
2022/02/01 10:15:57;;;;;;;;;;;;;;;6.04;57.67;98764.16;5092048;28;1641;-58
2022/02/01 10:18:31;;;;;;;;;;;;;;;6.01;57.83;98756.72;5094375;28;787;-58
2022/02/01 10:21:24;;;;;;;;;;;;;;;6.02;57.34;98758.31;5093668;28;1203;-57
2022/02/01 10:23:51;;;;;;;;;;;;;;;6.09;57.39;98750.03;5091261;28;1910;-57
2022/02/01 10:26:21;;;;;;;;;;;;;;;6.16;57.25;98755.47;5093978;28;894;-57
2022/02/01 10:31:51;;;;;;;;;;;;;;;5.95;58.17;98761.81;5093880;28;672;-57
2022/02/01 10:34:28;;;;;;;;;;;;;;;5.75;59.11;98757.94;5092666;28;1414;-57
2022/02/01 10:36:56;;;;;;;;;;;;;;;5.53;59.91;98758.75;5093425;28;949;-57
2022/02/01 10:39:24;;;;;;;;;;;;;;;5.46;59.71;98747.00;5093661;28;831;-57
2022/02/01 10:41:53;;;;;;;;;;;;;;;5.46;60.06;98741.53;5093724;28;822;-58
2022/02/01 10:44:20;;;;;;;;;;;;;;;5.49;60.30;98740.75;5093750;28;2001;-58
2022/02/01 10:46:51;;;;;;;;;;;;;;;5.48;60.29;98740.00;5093386;28;1178;-57
2022/02/01 10:49:26;;;;;;;;;;;;;;;5.48;60.23;98734.50;5093275;28;1242;-57
2022/02/01 10:52:04;;;;;;;;;;;;;;;5.55;60.59;98727.41;5093291;28;917;-57
2022/02/01 10:54:35;;;;;;;;;;;;;;;5.73;60.67;98723.47;5093144;28;933;-57
2022/02/01 10:57:02;;;;;;;;;;;;;;;6.03;59.73;98719.47;5093101;28;830;-57
2022/02/01 10:59:29;;;;;;;;;;;;;;;6.30;59.38;98717.00;5093282;28;842;-57
2022/02/01 11:01:56;;;;;;;;;;;;;;;6.49;59.14;98715.72;5093298;28;806;-57
2022/02/01 11:04:23;;;;;;;;;;;;;;;6.69;58.36;98710.50;5093043;28;1889;-57
2022/02/01 11:06:51;;;;;;;;;;;;;;;6.89;58.36;98704.47;5093109;28;795;-57
2022/02/01 11:09:18;;;;;;;;;;;;;;;7.09;57.44;98696.47;5093064;28;885;-57
2022/02/01 11:11:51;;;;;;;;;;;;;;;7.20;56.56;98699.13;5092892;28;895;-57
2022/02/01 11:14:21;;;;;;;;;;;;;;;7.35;55.99;98692.31;5092906;28;894;-58
2022/02/01 11:16:48;;;;;;;;;;;;;;;7.51;56.10;98698.03;5093268;28;1055;-58
2022/02/01 11:19:14;;;;;;;;;;;;;;;7.53;55.27;98701.16;5092616;28;1290;-57
2022/02/01 11:21:51;;;;;;;;;;;;;;;7.49;55.37;98692.16;5092641;28;889;-58
2022/02/01 11:24:38;;;;;;;;;;;;;;;7.33;54.82;98687.22;5092612;28;1910;-58
2022/02/01 11:27:20;;;;;;;;;;;;;;;7.21;55.17;98689.69;5092900;28;949;-58
2022/02/01 11:30:02;;;;;;;;;;;;;;;7.19;55.48;98698.34;5092458;28;776;-57
2022/02/01 11:32:33;;;;;;;;;;;;;;;7.22;54.84;98700.28;5106402;28;837;-57
2022/02/01 11:35:09;;;;;;;;;;;;;;;7.28;55.22;98709.66;5092664;28;826;-58
2022/02/01 11:37:45;;;;;;;;;;;;;;;7.34;55.08;98707.25;5092438;28;894;-57
2022/02/01 11:40:13;;;;;;;;;;;;;;;7.40;54.94;98711.09;5092563;28;846;-58
2022/02/01 11:42:50;;;;;;;;;;;;;;;7.44;55.07;98713.81;5092291;28;1936;-58
2022/02/01 11:45:25;;;;;;;;;;;;;;;7.44;55.64;98720.09;5074365;28;1171;-58
2022/02/01 11:47:51;;;;;;;;;;;;;;;7.40;54.85;98730.34;5092272;28;897;-58
2022/02/01 11:50:20;;;;;;;;;;;;;;;7.26;55.33;98723.03;5074036;28;1194;-57
2022/02/01 11:52:47;;;;;;;;;;;;;;;7.15;55.32;98736.06;5092206;28;930;-58
2022/02/01 11:55:15;;;;;;;;;;;;;;;7.03;55.48;98739.31;5073964;28;1705;-57
2022/02/01 11:57:43;;;;;;;;;;;;;;;6.88;56.55;98733.91;5092184;28;925;-58
2022/02/01 12:00:17;;;;;;;;;;;;;;;6.60;57.80;98740.38;5092144;28;846;-58
2022/02/01 12:02:55;;;;;;;;;;;;;;;6.22;58.40;98745.66;5092147;28;1885;-58
2022/02/01 12:05:28;;;;;;;;;;;;;;;5.71;61.46;98747.75;5092005;28;803;-57
2022/02/01 12:08:05;;;;;;;;;;;;;;;5.22;64.58;98748.59;5091201;28;919;-58
2022/02/01 12:10:33;;;;;;;;;;;;;;;4.69;67.13;98755.59;5091867;28;868;-57
2022/02/01 12:13:00;;;;;;;;;;;;;;;4.37;69.28;98755.53;5091860;28;921;-57
2022/02/01 12:15:27;;;;;;;;;;;;;;;4.13;70.82;98757.00;5091785;28;990;-58
2022/02/01 12:18:00;;;;;;;;;;;;;;;4.04;72.12;98757.38;5091744;28;815;-58
2022/02/01 12:20:29;;;;;;;;;;;;;;;3.99;72.63;98758.50;5091704;28;1184;-58
2022/02/01 12:23:05;;;;;;;;;;;;;;;3.89;73.80;98757.28;5091546;28;1906;-58
2022/02/01 12:25:32;;;;;;;;;;;;;;;3.76;75.20;98758.78;5091865;28;850;-58
2022/02/01 12:27:58;;;;;;;;;;;;;;;3.70;76.36;98760.31;5091883;28;798;-58
2022/02/01 12:30:25;;;;;;;;;;;;;;;3.60;77.45;98763.75;5091641;28;936;-59
2022/02/01 12:32:53;;;;;;;;;;;;;;;3.62;78.10;98766.88;5091900;28;889;-59
2022/02/01 12:35:33;;;;;;;;;;;;;;;3.67;78.66;98764.59;5091717;28;879;-58
2022/02/01 12:38:11;;;;;;;;;;;;;;;3.80;79.15;98767.78;5073669;28;868;-59
2022/02/01 12:40:39;;;;;;;;;;;;;;;3.94;79.88;98779.97;5091379;28;862;-59
2022/02/01 12:43:19;;;;;;;;;;;;;;;3.80;80.79;98778.72;5091531;28;1945;-59
2022/02/01 12:48:48;;;;;;;;;;;;;;;3.65;83.06;98777.06;5049065;28;1357;-59
2022/02/01 12:51:15;;;;;;;;;;;;;;;3.70;83.46;98773.19;5082931;28;1074;-59
2022/02/01 12:53:44;;;;;;;;;;;;;;;3.68;83.28;98781.75;5091527;28;873;-60
2022/02/01 12:56:14;;;;;;;;;;;;;;;3.63;83.95;98784.88;5091753;28;810;-60
2022/02/01 12:58:41;;;;;;;;;;;;;;;3.44;85.04;98789.41;5091425;28;850;-60
2022/02/01 13:01:08;;;;;;;;;;;;;;;3.35;85.95;98788.97;5091546;28;834;-60
2022/02/01 13:03:44;;;;;;;;;;;;;;;3.21;86.38;98792.34;5091257;28;1926;-62
2022/02/01 13:06:12;;;;;;;;;;;;;;;3.09;86.58;98797.31;5091308;28;831;-64
2022/02/01 13:12:56;;;;;;;;;;;;;;;3.08;87.53;98801.22;5091199;28;862;-64
2022/02/01 13:17:15;;;;;;;;;;;;;;;3.02;88.90;98817.16;5009217;28;1063;-68
2022/02/01 13:20:07;;;;;;;;;;;;;;;3.03;89.14;98816.78;5012093;28;1322;-68
2022/02/01 13:22:34;;;;;;;;;;;;;;;3.01;90.14;98813.63;5013183;28;843;-71
2022/02/01 13:25:05;;;;;;;;;;;;;;;2.92;89.97;98818.59;5013005;28;1976;-68
2022/02/01 13:27:32;;;;;;;;;;;;;;;2.89;90.37;98815.84;5013125;28;912;-65
2022/02/01 13:30:06;;;;;;;;;;;;;;;2.86;90.70;98820.91;5012961;28;1410;-71
2022/02/01 13:32:42;;;;;;;;;;;;;;;2.84;90.86;98831.41;5013094;28;1062;-70
2022/02/01 13:35:11;;;;;;;;;;;;;;;2.80;91.44;98829.81;5012928;28;812;-69
2022/02/01 13:37:46;;;;;;;;;;;;;;;2.64;90.53;98832.72;5012750;28;1121;-68
2022/02/01 13:40:24;;;;;;;;;;;;;;;2.48;90.87;98835.69;5012843;28;812;-67
2022/02/01 13:42:50;;;;;;;;;;;;;;;2.32;91.52;98838.59;5012751;28;1886;-66
2022/02/01 13:45:17;;;;;;;;;;;;;;;2.20;91.68;98844.28;5012945;28;957;-60
2022/02/01 13:47:44;;;;;;;;;;;;;;;2.06;91.11;98839.41;5012829;28;788;-59
2022/02/01 13:50:11;;;;;;;;;;;;;;;1.98;91.75;98838.53;5032019;28;2468;-63
2022/02/01 13:52:38;;;;;;;;;;;;;;;1.89;91.86;98846.19;5094845;28;881;-63
2022/02/01 13:55:16;;;;;;;;;;;;;;;1.90;91.73;98847.78;5094730;28;791;-65
2022/02/01 13:57:42;;;;;;;;;;;;;;;1.86;92.56;98857.03;5094513;28;815;-71
2022/02/01 14:00:11;;;;;;;;;;;;;;;1.86;92.68;98855.13;5076439;28;1211;-72
2022/02/01 14:02:47;;;;;;;;;;;;;;;1.89;92.02;98853.59;5094662;28;1894;-69
2022/02/01 14:05:23;;;;;;;;;;;;;;;1.79;92.28;98853.06;5076539;28;1309;-69
2022/02/01 14:26:50;;;;;;;;;;;;;;;1.80;93.63;98884.59;5093957;28;633;-58
2022/02/01 14:34:32;;;;;;;;;;;;;;;1.99;93.15;98877.50;5093825;28;676;-58
2022/02/01 14:37:03;;;;;;;;;;;;;;;1.96;93.57;98873.56;5093818;28;806;-60
2022/02/01 14:44:43;;;;;;;;;;;;;;;2.15;93.86;98886.28;5093503;28;1875;-60
2022/02/01 14:47:14;;;;;;;;;;;;;;;2.18;93.37;98884.78;5093521;28;893;-59
2022/02/01 14:49:41;;;;;;;;;;;;;;;2.13;93.68;98893.25;5093412;28;811;-58
2022/02/01 14:52:08;;;;;;;;;;;;;;;2.06;93.55;98890.44;5093561;28;815;-58
2022/02/01 14:54:47;;;;;;;;;;;;;;;1.98;93.22;98886.81;5093803;28;839;-56
2022/02/01 15:13:42;;;;;;;;;;;;;;;1.73;94.06;98881.78;5093372;28;609;-57
2022/02/01 15:16:07;;;;;;;;;;;;;;;1.74;94.49;98885.28;5093120;28;995;-56
2022/02/01 15:18:34;;;;;;;;;;;;;;;1.75;94.37;98884.13;5092861;28;905;-57
2022/02/01 15:21:01;;;;;;;;;;;;;;;1.75;95.22;98879.47;5092723;28;1323;-56
2022/02/01 15:23:28;;;;;;;;;;;;;;;1.76;94.82;98877.53;5092776;28;1969;-58
2022/02/01 15:25:54;;;;;;;;;;;;;;;1.74;94.49;98872.44;5092816;28;885;-59
2022/02/01 15:28:21;;;;;;;;;;;;;;;1.71;94.84;98872.38;5092675;28;815;-59
2022/02/01 15:30:48;;;;;;;;;;;;;;;1.66;94.60;98876.19;5092731;28;799;-59
2022/02/01 15:33:15;;;;;;;;;;;;;;;1.61;94.63;98873.78;5092723;28;811;-58
2022/02/01 15:35:42;;;;;;;;;;;;;;;1.58;94.96;98879.97;5092208;28;1149;-58
2022/02/01 15:38:11;;;;;;;;;;;;;;;1.53;95.13;98869.38;5092627;28;819;-60
2022/02/01 15:57:05;;;;;;;;;;;;;;;1.32;95.49;98877.97;5092254;28;609;-60